createdAt,value
2017-07-23T00:01:00.326Z,0
2017-07-23T00:02:10.314Z,0
2017-07-23T00:03:20.539Z,0
2017-07-23T00:04:30.820Z,0
2017-07-23T00:05:41.112Z,0
2017-07-23T00:06:50.768Z,0
2017-07-23T00:08:01.061Z,0
2017-07-23T00:09:11.288Z,0
2017-07-23T00:10:21.570Z,0
2017-07-23T00:11:31.846Z,0
2017-07-23T00:12:42.111Z,0
2017-07-23T00:13:52.085Z,0
2017-07-23T00:15:02.324Z,0
2017-07-23T00:16:12.605Z,0
2017-07-23T00:17:22.888Z,0
2017-07-23T00:18:33.181Z,0
2017-07-23T00:19:43.486Z,0
2017-07-23T00:20:53.701Z,0
2017-07-23T00:22:04.003Z,0
2017-07-23T00:23:14.297Z,0
2017-07-23T00:24:24.580Z,0
2017-07-23T00:25:34.234Z,0
2017-07-23T00:26:44.472Z,0
2017-07-23T00:27:54.764Z,0
2017-07-23T00:29:05.050Z,0
2017-07-23T00:30:15.339Z,0
2017-07-23T00:31:25.613Z,0
2017-07-23T00:32:35.853Z,0
2017-07-23T00:33:46.132Z,0
2017-07-23T00:34:56.414Z,0
2017-07-23T00:36:06.692Z,0
2017-07-23T00:37:16.663Z,0
2017-07-23T00:38:27.197Z,0
2017-07-23T00:39:37.482Z,0
2017-07-23T00:40:47.142Z,0
2017-07-23T00:41:57.419Z,0
2017-07-23T00:43:07.688Z,0
2017-07-23T00:44:18.207Z,0
2017-07-23T00:45:28.481Z,0
2017-07-23T00:46:38.444Z,0
2017-07-23T00:47:48.410Z,0
2017-07-23T00:48:58.407Z,0
2017-07-23T00:50:08.932Z,0
2017-07-23T00:51:19.201Z,0
2017-07-23T00:52:28.870Z,0
2017-07-23T00:53:39.145Z,0
2017-07-23T00:54:49.132Z,0
2017-07-23T00:55:59.348Z,0
2017-07-23T00:57:09.312Z,0
2017-07-23T00:58:19.583Z,0
2017-07-23T00:59:29.856Z,0
2017-07-23T01:00:40.126Z,0
2017-07-23T01:01:50.661Z,0
2017-07-23T01:03:00.937Z,0
2017-07-23T01:04:10.919Z,0
2017-07-23T01:05:20.885Z,0
2017-07-23T01:06:30.869Z,0
2017-07-23T01:07:41.089Z,0
2017-07-23T01:08:51.370Z,0
2017-07-23T01:10:01.872Z,0
2017-07-23T01:11:11.847Z,0
2017-07-23T01:12:22.128Z,0
2017-07-23T01:13:32.657Z,0
2017-07-23T01:14:42.947Z,0
2017-07-23T01:15:53.239Z,0
2017-07-23T01:17:03.514Z,0
2017-07-23T01:18:13.804Z,0
2017-07-23T01:19:24.344Z,0
2017-07-23T01:20:34.315Z,0
2017-07-23T01:21:44.277Z,0
2017-07-23T01:22:54.564Z,0
2017-07-23T01:24:04.839Z,0
2017-07-23T01:25:15.406Z,0
2017-07-23T01:26:25.372Z,0
2017-07-23T01:27:35.343Z,0
2017-07-23T01:28:45.337Z,0
2017-07-23T01:29:55.610Z,0
2017-07-23T01:31:06.149Z,0
2017-07-23T01:32:15.816Z,0
2017-07-23T01:33:26.083Z,0
2017-07-23T01:34:36.384Z,0
2017-07-23T01:35:46.652Z,0
2017-07-23T01:36:56.875Z,0
2017-07-23T01:38:07.145Z,0
2017-07-23T01:39:17.422Z,0
2017-07-23T01:40:27.717Z,0
2017-07-23T01:41:38.003Z,0
2017-07-23T01:42:48.248Z,0
2017-07-23T01:43:58.524Z,0
2017-07-23T01:45:08.173Z,0
2017-07-23T01:46:17.825Z,0
2017-07-23T01:47:27.811Z,0
2017-07-23T01:48:38.353Z,0
2017-07-23T01:49:48.630Z,0
2017-07-23T01:50:58.901Z,0
2017-07-23T01:52:09.200Z,0
2017-07-23T01:53:19.461Z,0
2017-07-23T01:54:29.976Z,0
2017-07-23T01:55:39.625Z,0
2017-07-23T01:56:49.586Z,0
2017-07-23T01:57:59.578Z,0
2017-07-23T01:59:09.852Z,0
2017-07-23T02:00:20.379Z,0
2017-07-23T02:01:30.328Z,0
2017-07-23T02:02:40.627Z,0
2017-07-23T02:03:50.916Z,0
2017-07-23T02:05:01.203Z,0
2017-07-23T02:06:11.803Z,0
2017-07-23T02:07:22.076Z,0
2017-07-23T02:08:32.342Z,0
2017-07-23T02:09:41.993Z,0
2017-07-23T02:10:52.273Z,0
2017-07-23T02:12:02.808Z,0
2017-07-23T02:13:13.096Z,0
2017-07-23T02:14:23.383Z,0
2017-07-23T02:15:33.670Z,0
2017-07-23T02:16:43.953Z,0
2017-07-23T02:17:54.476Z,0
2017-07-23T02:19:04.750Z,0
2017-07-23T02:20:15.030Z,0
2017-07-23T02:21:25.046Z,0
2017-07-23T02:22:34.996Z,0
2017-07-23T02:23:45.209Z,0
2017-07-23T02:24:55.502Z,0
2017-07-23T02:26:05.785Z,0
2017-07-23T02:27:16.072Z,0
2017-07-23T02:28:26.347Z,0
2017-07-23T02:29:36.870Z,0
2017-07-23T02:30:47.142Z,4
2017-07-23T02:31:57.147Z,4
2017-07-23T02:33:07.438Z,4
2017-07-23T02:34:17.817Z,0
2017-07-23T02:35:28.039Z,4
2017-07-23T02:36:38.325Z,4
2017-07-23T02:37:48.299Z,8
2017-07-23T02:38:58.257Z,8
2017-07-23T02:40:08.539Z,8
2017-07-23T02:41:19.094Z,8
2017-07-23T02:42:29.384Z,8
2017-07-23T02:43:39.688Z,12
2017-07-23T02:44:49.673Z,12
2017-07-23T02:45:59.939Z,16
2017-07-23T02:47:10.147Z,16
2017-07-23T02:48:20.428Z,20
2017-07-23T02:49:30.701Z,24
2017-07-23T02:50:40.677Z,28
2017-07-23T02:51:50.961Z,28
2017-07-23T02:53:01.190Z,36
2017-07-23T02:54:11.476Z,36
2017-07-23T02:55:21.437Z,44
2017-07-23T02:56:31.731Z,48
2017-07-23T02:57:41.387Z,52
2017-07-23T02:58:52.120Z,60
2017-07-23T03:00:02.402Z,72
2017-07-23T03:01:12.077Z,80
2017-07-23T03:02:22.349Z,92
2017-07-23T03:03:32.317Z,104
2017-07-23T03:04:42.863Z,112
2017-07-23T03:05:53.139Z,120
2017-07-23T03:07:03.417Z,132
2017-07-23T03:08:13.394Z,140
2017-07-23T03:09:23.670Z,152
2017-07-23T03:10:34.205Z,176
2017-07-23T03:11:44.505Z,204
2017-07-23T03:12:54.785Z,232
2017-07-23T03:14:05.065Z,272
2017-07-23T03:15:15.336Z,316
2017-07-23T03:16:25.858Z,364
2017-07-23T03:17:35.832Z,404
2017-07-23T03:18:46.112Z,456
2017-07-23T03:19:56.403Z,496
2017-07-23T03:21:06.670Z,512
2017-07-23T03:22:17.223Z,536
2017-07-23T03:23:27.500Z,564
2017-07-23T03:24:37.802Z,620
2017-07-23T03:25:48.077Z,700
2017-07-23T03:26:58.054Z,760
2017-07-23T03:28:08.329Z,780
2017-07-23T03:29:18.631Z,832
2017-07-23T03:30:28.915Z,924
2017-07-23T03:31:39.245Z,1012
2017-07-23T03:32:49.536Z,1136
2017-07-23T03:34:00.063Z,1260
2017-07-23T03:35:10.357Z,1396
2017-07-23T03:36:20.350Z,1512
2017-07-23T03:37:30.015Z,1604
2017-07-23T03:38:40.289Z,1776
2017-07-23T03:39:50.806Z,1872
2017-07-23T03:41:01.069Z,1976
2017-07-23T03:42:11.355Z,2044
2017-07-23T03:43:21.621Z,2080
2017-07-23T03:44:31.585Z,2088
2017-07-23T03:45:42.099Z,2116
2017-07-23T03:46:52.075Z,2124
2017-07-23T03:48:02.380Z,2152
2017-07-23T03:49:12.037Z,2200
2017-07-23T03:50:22.012Z,2220
2017-07-23T03:51:32.215Z,2244
2017-07-23T03:52:42.496Z,2312
2017-07-23T03:53:52.762Z,2308
2017-07-23T03:55:03.030Z,2352
2017-07-23T03:56:13.307Z,2464
2017-07-23T03:57:23.519Z,2452
2017-07-23T03:58:33.489Z,2584
2017-07-23T03:59:43.769Z,2708
2017-07-23T04:00:54.054Z,2792
2017-07-23T04:02:04.034Z,2832
2017-07-23T04:03:14.564Z,2932
2017-07-23T04:04:24.527Z,2748
2017-07-23T04:05:34.812Z,2916
2017-07-23T04:06:44.788Z,3124
2017-07-23T04:07:55.062Z,3132
2017-07-23T04:09:05.280Z,3176
2017-07-23T04:10:15.246Z,3212
2017-07-23T04:11:25.534Z,3456
2017-07-23T04:12:35.808Z,3632
2017-07-23T04:13:45.783Z,3696
2017-07-23T04:14:55.993Z,3832
2017-07-23T04:16:06.271Z,3856
2017-07-23T04:17:16.235Z,3880
2017-07-23T04:18:26.512Z,4212
2017-07-23T04:19:36.174Z,4060
2017-07-23T04:20:46.691Z,4208
2017-07-23T04:21:56.965Z,3552
2017-07-23T04:23:07.289Z,3376
2017-07-23T04:24:16.939Z,3276
2017-07-23T04:25:26.910Z,3172
2017-07-23T04:26:37.420Z,3188
2017-07-23T04:27:47.379Z,3140
2017-07-23T04:28:57.352Z,3292
2017-07-23T04:30:07.632Z,3356
2017-07-23T04:31:17.911Z,3216
2017-07-23T04:32:27.813Z,3280
2017-07-23T04:33:37.471Z,3452
2017-07-23T04:34:47.430Z,3324
2017-07-23T04:35:57.084Z,3404
2017-07-23T04:37:06.739Z,3220
2017-07-23T04:38:16.943Z,3224
2017-07-23T04:39:26.911Z,3284
2017-07-23T04:40:36.884Z,3464
2017-07-23T04:41:47.158Z,3384
2017-07-23T04:42:57.146Z,3312
2017-07-23T04:44:07.126Z,3392
2017-07-23T04:45:17.394Z,3492
2017-07-23T04:46:27.651Z,3680
2017-07-23T04:47:37.909Z,3812
2017-07-23T04:48:48.198Z,4432
2017-07-23T04:49:58.794Z,4832
2017-07-23T04:51:09.069Z,5360
2017-07-23T04:52:19.349Z,5856
2017-07-23T04:53:29.313Z,5500
2017-07-23T04:54:39.587Z,5428
2017-07-23T04:55:50.121Z,5476
2017-07-23T04:57:00.107Z,5928
2017-07-23T04:58:10.396Z,6428
2017-07-23T04:59:20.359Z,6596
2017-07-23T05:00:30.629Z,6732
2017-07-23T05:01:40.227Z,7332
2017-07-23T05:02:50.492Z,7232
2017-07-23T05:04:00.559Z,7552
2017-07-23T05:05:10.830Z,7420
2017-07-23T05:06:21.112Z,7844
2017-07-23T05:07:31.013Z,8128
2017-07-23T05:08:41.295Z,9164
2017-07-23T05:09:51.562Z,8896
2017-07-23T05:11:01.853Z,9680
2017-07-23T05:12:12.125Z,9464
2017-07-23T05:13:22.655Z,10076
2017-07-23T05:14:32.326Z,9652
2017-07-23T05:15:42.603Z,9292
2017-07-23T05:16:52.890Z,9836
2017-07-23T05:18:02.866Z,9940
2017-07-23T05:19:13.397Z,9604
2017-07-23T05:20:23.361Z,10276
2017-07-23T05:21:33.335Z,10020
2017-07-23T05:22:43.609Z,9880
2017-07-23T05:23:53.902Z,10468
2017-07-23T05:25:04.115Z,10516
2017-07-23T05:26:14.424Z,10064
2017-07-23T05:27:24.699Z,11172
2017-07-23T05:28:34.972Z,10804
2017-07-23T05:29:45.287Z,9592
2017-07-23T05:30:55.816Z,9644
2017-07-23T05:32:05.486Z,9112
2017-07-23T05:33:15.781Z,9760
2017-07-23T05:34:25.759Z,10072
2017-07-23T05:35:35.726Z,9684
2017-07-23T05:36:46.260Z,10024
2017-07-23T05:37:56.548Z,10932
2017-07-23T05:39:06.842Z,11924
2017-07-23T05:40:17.135Z,12292
2017-07-23T05:41:27.121Z,12804
2017-07-23T05:42:37.652Z,12552
2017-07-23T05:43:47.936Z,13368
2017-07-23T05:44:57.907Z,13840
2017-07-23T05:46:07.559Z,13500
2017-07-23T05:47:17.844Z,13848
2017-07-23T05:48:28.077Z,13964
2017-07-23T05:49:38.364Z,14856
2017-07-23T05:50:48.662Z,15604
2017-07-23T05:51:58.942Z,15516
2017-07-23T05:53:08.917Z,17536
2017-07-23T05:54:19.452Z,16612
2017-07-23T05:55:29.438Z,17728
2017-07-23T05:56:39.859Z,17156
2017-07-23T05:57:49.818Z,17920
2017-07-23T05:59:00.079Z,18304
2017-07-23T06:00:10.625Z,19200
2017-07-23T06:01:20.904Z,20544
2017-07-23T06:02:31.175Z,21664
2017-07-23T06:03:40.842Z,23488
2017-07-23T06:04:51.123Z,24864
2017-07-23T06:06:01.324Z,25728
2017-07-23T06:07:11.296Z,26272
2017-07-23T06:08:21.571Z,28800
2017-07-23T06:09:31.841Z,29376
2017-07-23T06:10:42.129Z,31072
2017-07-23T06:11:52.672Z,32320
2017-07-23T06:13:02.938Z,29216
2017-07-23T06:14:12.584Z,19872
2017-07-23T06:15:22.862Z,8372
2017-07-23T06:16:32.821Z,2508
2017-07-23T06:17:43.372Z,2264
2017-07-23T06:18:53.650Z,6744
2017-07-23T06:20:03.919Z,16844
2017-07-23T06:21:13.902Z,14040
2017-07-23T06:22:24.210Z,6712
2017-07-23T06:23:34.483Z,3756
2017-07-23T06:24:44.759Z,4832
2017-07-23T06:25:55.025Z,7600
2017-07-23T06:27:05.319Z,5848
2017-07-23T06:28:15.332Z,5016
2017-07-23T06:29:25.541Z,6756
2017-07-23T06:30:35.511Z,9092
2017-07-23T06:31:45.496Z,6904
2017-07-23T06:32:55.771Z,4984
2017-07-23T06:34:06.070Z,5604
2017-07-23T06:35:16.598Z,6504
2017-07-23T06:36:26.872Z,6504
2017-07-23T06:37:36.235Z,8200
2017-07-23T06:38:46.212Z,7296
2017-07-23T06:39:56.497Z,8008
2017-07-23T06:41:07.023Z,7368
2017-07-23T06:42:17.286Z,5724
2017-07-23T06:43:27.242Z,4092
2017-07-23T06:44:37.519Z,2740
2017-07-23T06:45:47.482Z,2176
2017-07-23T06:46:57.696Z,1448
2017-07-23T06:48:07.367Z,1292
2017-07-23T06:49:17.667Z,1208
2017-07-23T06:50:27.936Z,1172
2017-07-23T06:51:38.215Z,1144
2017-07-23T06:52:48.436Z,1152
2017-07-23T06:53:58.735Z,1204
2017-07-23T06:55:09.016Z,1372
2017-07-23T06:56:18.992Z,1668
2017-07-23T06:57:29.265Z,1984
2017-07-23T06:58:39.801Z,2364
2017-07-23T06:59:50.076Z,2784
2017-07-23T07:01:00.374Z,3200
2017-07-23T07:02:10.358Z,3564
2017-07-23T07:03:20.014Z,3988
2017-07-23T07:04:30.243Z,4160
2017-07-23T07:05:40.529Z,4364
2017-07-23T07:06:50.512Z,4468
2017-07-23T07:08:00.180Z,4352
2017-07-23T07:09:10.485Z,4272
2017-07-23T07:10:20.712Z,4260
2017-07-23T07:11:31.000Z,4328
2017-07-23T07:12:41.313Z,4308
2017-07-23T07:13:51.595Z,4220
2017-07-23T07:15:01.561Z,4008
2017-07-23T07:16:12.095Z,3928
2017-07-23T07:17:22.369Z,3704
2017-07-23T07:18:32.661Z,3364
2017-07-23T07:19:42.936Z,3216
2017-07-23T07:20:52.594Z,3028
2017-07-23T07:22:03.132Z,2956
2017-07-23T07:23:13.100Z,3048
2017-07-23T07:24:23.073Z,3144
2017-07-23T07:25:33.038Z,3532
2017-07-23T07:26:43.320Z,3936
2017-07-23T07:27:53.844Z,4524
2017-07-23T07:29:04.099Z,5072
2017-07-23T07:30:14.368Z,5560
2017-07-23T07:31:24.320Z,6152
2017-07-23T07:32:33.990Z,6696
2017-07-23T07:33:44.511Z,7188
2017-07-23T07:34:54.492Z,7436
2017-07-23T07:36:04.783Z,7584
2017-07-23T07:37:15.087Z,7624
2017-07-23T07:38:25.051Z,7620
2017-07-23T07:39:35.298Z,7880
2017-07-23T07:40:45.582Z,8380
2017-07-23T07:41:55.859Z,9100
2017-07-23T07:43:06.122Z,9920
2017-07-23T07:44:16.401Z,10620
2017-07-23T07:45:26.941Z,10984
2017-07-23T07:46:36.904Z,11272
2017-07-23T07:47:46.876Z,11776
2017-07-23T07:48:56.830Z,12544
2017-07-23T07:50:06.488Z,13448
2017-07-23T07:51:17.013Z,14412
2017-07-23T07:52:27.317Z,15236
2017-07-23T07:53:36.972Z,15596
2017-07-23T07:54:47.249Z,15520
2017-07-23T07:55:57.523Z,15344
2017-07-23T07:57:08.052Z,15368
2017-07-23T07:58:18.020Z,15308
2017-07-23T07:59:28.000Z,15004
2017-07-23T08:00:37.970Z,14528
2017-07-23T08:01:48.265Z,13916
2017-07-23T08:02:58.482Z,13244
2017-07-23T08:04:08.442Z,12592
2017-07-23T08:05:18.116Z,12384
2017-07-23T08:06:28.432Z,12700
2017-07-23T08:07:38.713Z,13656
2017-07-23T08:08:49.237Z,14796
2017-07-23T08:09:59.533Z,15708
2017-07-23T08:11:09.204Z,16600
2017-07-23T08:12:19.482Z,17824
2017-07-23T08:13:29.155Z,18624
2017-07-23T08:14:39.693Z,19424
2017-07-23T08:15:50.007Z,20352
2017-07-23T08:17:00.284Z,21344
2017-07-23T08:18:10.574Z,22496
2017-07-23T08:19:20.538Z,23904
2017-07-23T08:20:31.077Z,25280
2017-07-23T08:21:41.366Z,26560
2017-07-23T08:22:51.360Z,27584
2017-07-23T08:24:01.669Z,28352
2017-07-23T08:25:11.955Z,28992
2017-07-23T08:26:22.176Z,29536
2017-07-23T08:27:32.131Z,29696
2017-07-23T08:28:42.127Z,29696
2017-07-23T08:29:52.129Z,29920
2017-07-23T08:31:02.410Z,30112
2017-07-23T08:32:12.616Z,29792
2017-07-23T08:33:22.907Z,28576
2017-07-23T08:34:33.194Z,27168
2017-07-23T08:35:43.160Z,25760
2017-07-23T08:36:53.108Z,24832
2017-07-23T08:38:03.629Z,28192
2017-07-23T08:39:13.927Z,32288
2017-07-23T08:40:24.214Z,33760
2017-07-23T08:41:34.512Z,32640
2017-07-23T08:42:44.481Z,29600
2017-07-23T08:43:55.028Z,30528
2017-07-23T08:45:05.324Z,24096
2017-07-23T08:46:15.293Z,22816
2017-07-23T08:47:25.599Z,20416
2017-07-23T08:48:35.265Z,15936
2017-07-23T08:49:45.534Z,14732
2017-07-23T08:50:55.494Z,11524
2017-07-23T08:52:05.779Z,11588
2017-07-23T08:53:16.308Z,11956
2017-07-23T08:54:26.603Z,12760
2017-07-23T08:55:36.876Z,13800
2017-07-23T08:56:46.847Z,13028
2017-07-23T08:57:56.806Z,14880
2017-07-23T08:59:07.109Z,22400
2017-07-23T09:00:17.395Z,29440
2017-07-23T09:01:27.615Z,37472
2017-07-23T09:02:37.919Z,41216
2017-07-23T09:03:48.204Z,28896
2017-07-23T09:04:58.473Z,24416
2017-07-23T09:06:08.443Z,31264
2017-07-23T09:07:18.676Z,36608
2017-07-23T09:08:28.979Z,33024
2017-07-23T09:09:39.273Z,28096
2017-07-23T09:10:49.248Z,24192
2017-07-23T09:11:59.228Z,22880
2017-07-23T09:13:09.757Z,23072
2017-07-23T09:14:19.435Z,25728
2017-07-23T09:15:29.734Z,22784
2017-07-23T09:16:39.734Z,18944
2017-07-23T09:17:49.387Z,26688
2017-07-23T09:18:59.916Z,33440
2017-07-23T09:20:10.202Z,34912
2017-07-23T09:21:20.188Z,26144
2017-07-23T09:22:30.176Z,24288
2017-07-23T09:23:40.475Z,28480
2017-07-23T09:24:50.763Z,25184
2017-07-23T09:26:01.044Z,25536
2017-07-23T09:27:11.332Z,29408
2017-07-23T09:28:21.615Z,35264
2017-07-23T09:29:31.888Z,45184
2017-07-23T09:30:42.135Z,33984
2017-07-23T09:31:52.128Z,29632
2017-07-23T09:33:02.432Z,19744
2017-07-23T09:34:12.737Z,21760
2017-07-23T09:35:23.033Z,23424
2017-07-23T09:36:33.253Z,24992
2017-07-23T09:37:43.541Z,26080
2017-07-23T09:38:53.835Z,29696
2017-07-23T09:40:04.143Z,34912
2017-07-23T09:41:14.428Z,28672
2017-07-23T09:42:24.649Z,34272
2017-07-23T09:43:34.935Z,37728
2017-07-23T09:44:44.600Z,35776
2017-07-23T09:45:54.885Z,31488
2017-07-23T09:47:05.193Z,36672
2017-07-23T09:48:15.721Z,43520
2017-07-23T09:49:25.684Z,41856
2017-07-23T09:50:35.990Z,40832
2017-07-23T09:51:46.266Z,59200
2017-07-23T09:52:56.571Z,57536
2017-07-23T09:54:07.126Z,40064
2017-07-23T09:55:17.406Z,36576
2017-07-23T09:56:27.073Z,37152
2017-07-23T09:57:37.051Z,52320
2017-07-23T09:58:47.012Z,49888
2017-07-23T09:59:57.555Z,42880
2017-07-23T10:01:07.843Z,40992
2017-07-23T10:02:18.127Z,44288
2017-07-23T10:03:28.417Z,37536
2017-07-23T10:04:38.703Z,38912
2017-07-23T10:05:48.968Z,41088
2017-07-23T10:06:59.262Z,44992
2017-07-23T10:08:09.555Z,39584
2017-07-23T10:09:19.233Z,38400
2017-07-23T10:10:29.517Z,38944
2017-07-23T10:11:40.076Z,38048
2017-07-23T10:12:50.366Z,39456
2017-07-23T10:14:00.357Z,38560
2017-07-23T10:15:10.641Z,37440
2017-07-23T10:16:20.922Z,36192
2017-07-23T10:17:31.441Z,33568
2017-07-23T10:18:41.474Z,34048
2017-07-23T10:19:51.768Z,34976
2017-07-23T10:21:01.742Z,35328
2017-07-23T10:22:11.400Z,28896
2017-07-23T10:23:21.368Z,30368
2017-07-23T10:24:31.646Z,37152
2017-07-23T10:25:41.631Z,26848
2017-07-23T10:26:51.311Z,39744
2017-07-23T10:28:01.286Z,62144
2017-07-23T10:29:11.828Z,63264
2017-07-23T10:30:21.952Z,61088
2017-07-23T10:31:32.255Z,47072
2017-07-23T10:32:41.922Z,44640
2017-07-23T10:33:52.212Z,35136
2017-07-23T10:35:02.757Z,28352
2017-07-23T10:36:12.448Z,19776
2017-07-23T10:37:22.751Z,26848
2017-07-23T10:38:33.029Z,32352
2017-07-23T10:39:43.002Z,25248
2017-07-23T10:40:53.525Z,25536
2017-07-23T10:42:03.806Z,22464
2017-07-23T10:43:14.093Z,26368
2017-07-23T10:44:24.091Z,41440
2017-07-23T10:45:34.368Z,59456
2017-07-23T10:46:44.920Z,76064
2017-07-23T10:47:54.571Z,43392
2017-07-23T10:49:04.877Z,54176
2017-07-23T10:50:14.869Z,113440
2017-07-23T10:51:25.140Z,119200
2017-07-23T10:52:35.391Z,115008
2017-07-23T10:53:45.381Z,119328
2017-07-23T10:54:55.693Z,121952
2017-07-23T10:56:05.993Z,120128
2017-07-23T10:57:16.282Z,114368
2017-07-23T10:58:26.518Z,113280
2017-07-23T10:59:36.500Z,124928
2017-07-23T11:00:46.489Z,98624
2017-07-23T11:01:56.487Z,119968
2017-07-23T11:03:06.468Z,130720
2017-07-23T11:04:16.699Z,101600
2017-07-23T11:05:26.997Z,108256
2017-07-23T11:06:37.332Z,119648
2017-07-23T11:07:47.313Z,126496
2017-07-23T11:08:57.611Z,127872
2017-07-23T11:10:08.163Z,131488
2017-07-23T11:11:18.461Z,132032
2017-07-23T11:12:28.737Z,135360
2017-07-23T11:13:39.031Z,137408
2017-07-23T11:14:49.334Z,67072
2017-07-23T11:15:59.891Z,40448
2017-07-23T11:17:10.187Z,37408
2017-07-23T11:18:20.478Z,31392
2017-07-23T11:19:30.473Z,34656
2017-07-23T11:20:40.769Z,39328
2017-07-23T11:21:51.314Z,43552
2017-07-23T11:23:01.609Z,55424
2017-07-23T11:24:11.900Z,57376
2017-07-23T11:25:21.876Z,74112
2017-07-23T11:26:31.871Z,73440
2017-07-23T11:27:42.155Z,47040
2017-07-23T11:28:52.454Z,41856
2017-07-23T11:30:02.769Z,42752
2017-07-23T11:31:12.476Z,39872
2017-07-23T11:32:22.777Z,36128
2017-07-23T11:33:32.700Z,32704
2017-07-23T11:34:42.677Z,32288
2017-07-23T11:35:52.984Z,33376
2017-07-23T11:37:03.252Z,33760
2017-07-23T11:38:13.245Z,34240
2017-07-23T11:39:23.789Z,35936
2017-07-23T11:40:34.102Z,37632
2017-07-23T11:41:44.078Z,39456
2017-07-23T11:42:54.043Z,39488
2017-07-23T11:44:04.025Z,38720
2017-07-23T11:45:14.566Z,37728
2017-07-23T11:46:24.860Z,41344
2017-07-23T11:47:34.836Z,50048
2017-07-23T11:48:44.814Z,51264
2017-07-23T11:49:55.102Z,50560
2017-07-23T11:51:05.632Z,53856
2017-07-23T11:52:15.928Z,54688
2017-07-23T11:53:25.911Z,52384
2017-07-23T11:54:36.199Z,53792
2017-07-23T11:55:46.494Z,67552
2017-07-23T11:56:57.041Z,54464
2017-07-23T11:58:07.342Z,52032
2017-07-23T11:59:17.645Z,47424
2017-07-23T12:00:27.631Z,46816
2017-07-23T12:01:37.951Z,53152
2017-07-23T12:02:48.495Z,90528
2017-07-23T12:03:58.815Z,66176
2017-07-23T12:05:09.333Z,59104
2017-07-23T12:06:19.638Z,45632
2017-07-23T12:07:29.921Z,40896
2017-07-23T12:08:40.140Z,38112
2017-07-23T12:09:50.435Z,37376
2017-07-23T12:11:00.441Z,42432
2017-07-23T12:12:10.099Z,59072
2017-07-23T12:13:20.405Z,72928
2017-07-23T12:14:30.972Z,70848
2017-07-23T12:15:41.245Z,76544
2017-07-23T12:16:51.535Z,122400
2017-07-23T12:18:01.532Z,95648
2017-07-23T12:19:11.814Z,88416
2017-07-23T12:20:22.441Z,113984
2017-07-23T12:21:32.742Z,112864
2017-07-23T12:22:42.390Z,84704
2017-07-23T12:23:52.683Z,115936
2017-07-23T12:25:02.985Z,113856
2017-07-23T12:26:13.523Z,87456
2017-07-23T12:27:23.514Z,82208
2017-07-23T12:28:33.805Z,101376
2017-07-23T12:29:44.121Z,54496
2017-07-23T12:30:54.420Z,52992
2017-07-23T12:32:04.652Z,73568
2017-07-23T12:33:15.253Z,49056
2017-07-23T12:34:25.550Z,70496
2017-07-23T12:35:35.844Z,45120
2017-07-23T12:36:46.118Z,49920
2017-07-23T12:37:56.344Z,57984
2017-07-23T12:39:06.335Z,53248
2017-07-23T12:40:16.625Z,65408
2017-07-23T12:41:26.927Z,43232
2017-07-23T12:42:37.234Z,38432
2017-07-23T12:43:47.772Z,37056
2017-07-23T12:44:58.064Z,39040
2017-07-23T12:46:08.378Z,48928
2017-07-23T12:47:18.357Z,110816
2017-07-23T12:48:28.664Z,112512
2017-07-23T12:49:38.890Z,108160
2017-07-23T12:50:48.873Z,102304
2017-07-23T12:51:59.160Z,88704
2017-07-23T12:53:09.149Z,75936
2017-07-23T12:54:19.469Z,88992
2017-07-23T12:55:30.026Z,90048
2017-07-23T12:56:40.051Z,95680
2017-07-23T12:57:50.341Z,100480
2017-07-23T12:59:00.619Z,105728
2017-07-23T13:00:10.914Z,110944
2017-07-23T13:01:21.172Z,137344
2017-07-23T13:02:31.475Z,130624
2017-07-23T13:03:41.762Z,109536
2017-07-23T13:04:52.065Z,96128
2017-07-23T13:06:02.368Z,81632
2017-07-23T13:07:12.912Z,99328
2017-07-23T13:08:22.870Z,93792
2017-07-23T13:09:32.856Z,88416
2017-07-23T13:10:43.161Z,85696
2017-07-23T13:11:53.458Z,91040
2017-07-23T13:13:04.054Z,85344
2017-07-23T13:14:14.333Z,79872
2017-07-23T13:15:24.629Z,78048
2017-07-23T13:16:34.599Z,73536
2017-07-23T13:17:44.593Z,120000
2017-07-23T13:18:55.141Z,145344
2017-07-23T13:20:05.122Z,140704
2017-07-23T13:21:15.419Z,141120
2017-07-23T13:22:25.405Z,146496
2017-07-23T13:23:35.697Z,141920
2017-07-23T13:24:46.254Z,144768
2017-07-23T13:25:56.572Z,133216
2017-07-23T13:27:06.866Z,118688
2017-07-23T13:28:17.164Z,126912
2017-07-23T13:29:26.826Z,122080
2017-07-23T13:30:37.373Z,116864
2017-07-23T13:31:47.352Z,57856
2017-07-23T13:32:57.633Z,125856
2017-07-23T13:34:07.313Z,70592
2017-07-23T13:35:17.309Z,31488
2017-07-23T13:36:27.865Z,36416
2017-07-23T13:37:37.844Z,124608
2017-07-23T13:38:48.137Z,118240
2017-07-23T13:39:58.110Z,95744
2017-07-23T13:41:07.769Z,141344
2017-07-23T13:42:18.301Z,139680
2017-07-23T13:43:27.960Z,121152
2017-07-23T13:44:38.265Z,127680
2017-07-23T13:45:48.561Z,130592
2017-07-23T13:46:58.239Z,128256
2017-07-23T13:48:08.764Z,130208
2017-07-23T13:49:18.450Z,137472
2017-07-23T13:50:28.736Z,108608
2017-07-23T13:51:39.036Z,130432
2017-07-23T13:52:49.335Z,132832
2017-07-23T13:53:59.936Z,130912
2017-07-23T13:55:10.246Z,70496
2017-07-23T13:56:20.519Z,28928
2017-07-23T13:57:30.521Z,34080
2017-07-23T13:58:40.189Z,116128
2017-07-23T13:59:50.735Z,82112
2017-07-23T14:01:01.022Z,75328
2017-07-23T14:02:11.322Z,30720
2017-07-23T14:03:21.603Z,86624
2017-07-23T14:04:31.586Z,29664
2017-07-23T14:05:42.133Z,26656
2017-07-23T14:06:52.132Z,22816
2017-07-23T14:08:02.406Z,23840
2017-07-23T14:09:12.691Z,25600
2017-07-23T14:10:22.682Z,28288
2017-07-23T14:11:32.908Z,33664
2017-07-23T14:12:43.199Z,37696
2017-07-23T14:13:53.186Z,41824
2017-07-23T14:15:03.470Z,50848
2017-07-23T14:16:13.761Z,109024
2017-07-23T14:17:24.390Z,102720
2017-07-23T14:18:34.061Z,58400
2017-07-23T14:19:44.363Z,42560
2017-07-23T14:20:54.341Z,86528
2017-07-23T14:22:04.637Z,56000
2017-07-23T14:23:14.871Z,74752
2017-07-23T14:24:25.147Z,98240
2017-07-23T14:25:35.441Z,40736
2017-07-23T14:26:45.418Z,45408
2017-07-23T14:27:55.712Z,39904
2017-07-23T14:29:06.243Z,85344
2017-07-23T14:30:16.217Z,64064
2017-07-23T14:31:26.498Z,46656
2017-07-23T14:32:36.466Z,34976
2017-07-23T14:33:46.746Z,28160
2017-07-23T14:34:56.972Z,25568
2017-07-23T14:36:07.492Z,24320
2017-07-23T14:37:17.785Z,23424
2017-07-23T14:38:28.092Z,23488
2017-07-23T14:39:38.365Z,24288
2017-07-23T14:40:48.924Z,25312
2017-07-23T14:41:58.894Z,27520
2017-07-23T14:43:08.249Z,43584
2017-07-23T14:44:18.548Z,67456
2017-07-23T14:45:28.840Z,48960
2017-07-23T14:46:38.803Z,44864
2017-07-23T14:47:49.090Z,120384
2017-07-23T14:48:59.384Z,89920
2017-07-23T14:50:09.673Z,39776
2017-07-23T14:51:19.643Z,84928
2017-07-23T14:52:29.551Z,33056
2017-07-23T14:53:39.839Z,28416
2017-07-23T14:54:49.832Z,26240
2017-07-23T14:55:59.809Z,21120
2017-07-23T14:57:09.472Z,18400
2017-07-23T14:58:19.376Z,16496
2017-07-23T14:59:29.382Z,15024
2017-07-23T15:00:39.357Z,13948
2017-07-23T15:01:49.673Z,13212
2017-07-23T15:02:59.637Z,12204
2017-07-23T15:04:09.872Z,11044
2017-07-23T15:05:20.156Z,10164
2017-07-23T15:06:30.144Z,9632
2017-07-23T15:07:40.425Z,9976
2017-07-23T15:08:50.397Z,10684
2017-07-23T15:10:00.611Z,11600
2017-07-23T15:11:10.899Z,12992
2017-07-23T15:12:21.167Z,14468
2017-07-23T15:13:31.469Z,16704
2017-07-23T15:14:41.757Z,19552
2017-07-23T15:15:51.990Z,21120
2017-07-23T15:17:01.648Z,21920
2017-07-23T15:18:11.945Z,23520
2017-07-23T15:19:22.232Z,24352
2017-07-23T15:20:32.214Z,26080
2017-07-23T15:21:42.449Z,48224
2017-07-23T15:22:52.737Z,34496
2017-07-23T15:24:02.711Z,37536
2017-07-23T15:25:12.407Z,39872
2017-07-23T15:26:22.691Z,36576
2017-07-23T15:27:33.239Z,40544
2017-07-23T15:28:43.517Z,102944
2017-07-23T15:29:53.487Z,47072
2017-07-23T15:31:03.459Z,36128
2017-07-23T15:32:13.423Z,86304
2017-07-23T15:33:23.341Z,113312